sensor_id;sensor_type;location;lat;lon;timestamp;P1;durP1;ratioP1;P2;durP2;ratioP2
70920;SDS011;58572;48.110;19.838;2023-04-25T00:00:09;11.95;;;7.28;;
70920;SDS011;58572;48.110;19.838;2023-04-25T00:02:37;10.57;;;7.22;;
70920;SDS011;58572;48.110;19.838;2023-04-25T00:05:04;11.18;;;7.43;;
70920;SDS011;58572;48.110;19.838;2023-04-25T00:07:32;12.40;;;7.65;;
70920;SDS011;58572;48.110;19.838;2023-04-25T00:10:02;10.00;;;7.45;;
70920;SDS011;58572;48.110;19.838;2023-04-25T00:12:30;10.18;;;7.32;;
70920;SDS011;58572;48.110;19.838;2023-04-25T00:14:58;11.65;;;7.03;;
70920;SDS011;58572;48.110;19.838;2023-04-25T00:17:25;10.27;;;7.78;;
70920;SDS011;58572;48.110;19.838;2023-04-25T00:19:53;9.63;;;6.93;;
70920;SDS011;58572;48.110;19.838;2023-04-25T00:22:21;12.40;;;7.32;;
70920;SDS011;58572;48.110;19.838;2023-04-25T00:24:48;10.65;;;7.50;;
70920;SDS011;58572;48.110;19.838;2023-04-25T00:27:17;9.25;;;6.97;;
70920;SDS011;58572;48.110;19.838;2023-04-25T00:29:44;10.88;;;7.75;;
70920;SDS011;58572;48.110;19.838;2023-04-25T00:32:11;13.10;;;7.40;;
70920;SDS011;58572;48.110;19.838;2023-04-25T00:34:38;10.48;;;7.47;;
70920;SDS011;58572;48.110;19.838;2023-04-25T00:37:05;10.05;;;6.28;;
70920;SDS011;58572;48.110;19.838;2023-04-25T00:39:34;9.38;;;6.70;;
70920;SDS011;58572;48.110;19.838;2023-04-25T00:42:01;9.77;;;6.82;;
70920;SDS011;58572;48.110;19.838;2023-04-25T00:44:31;8.13;;;6.18;;
70920;SDS011;58572;48.110;19.838;2023-04-25T00:46:58;8.27;;;6.07;;
70920;SDS011;58572;48.110;19.838;2023-04-25T00:49:26;8.82;;;6.35;;
70920;SDS011;58572;48.110;19.838;2023-04-25T00:51:54;9.20;;;6.45;;
70920;SDS011;58572;48.110;19.838;2023-04-25T00:54:21;8.07;;;6.20;;
70920;SDS011;58572;48.110;19.838;2023-04-25T00:56:49;9.32;;;6.28;;
70920;SDS011;58572;48.110;19.838;2023-04-25T00:59:16;10.25;;;6.25;;
70920;SDS011;58572;48.110;19.838;2023-04-25T01:01:46;9.55;;;6.15;;
70920;SDS011;58572;48.110;19.838;2023-04-25T01:04:13;9.38;;;7.35;;
70920;SDS011;58572;48.110;19.838;2023-04-25T01:06:40;8.63;;;6.45;;
70920;SDS011;58572;48.110;19.838;2023-04-25T01:09:08;9.68;;;6.63;;
70920;SDS011;58572;48.110;19.838;2023-04-25T01:11:36;9.18;;;7.25;;
70920;SDS011;58572;48.110;19.838;2023-04-25T01:14:03;8.70;;;6.57;;
70920;SDS011;58572;48.110;19.838;2023-04-25T01:16:30;10.15;;;6.13;;
70920;SDS011;58572;48.110;19.838;2023-04-25T01:19:00;8.32;;;5.93;;
70920;SDS011;58572;48.110;19.838;2023-04-25T01:21:30;7.70;;;6.20;;
70920;SDS011;58572;48.110;19.838;2023-04-25T01:23:57;8.90;;;5.95;;
70920;SDS011;58572;48.110;19.838;2023-04-25T01:26:24;8.48;;;5.95;;
70920;SDS011;58572;48.110;19.838;2023-04-25T01:28:52;8.25;;;5.55;;
70920;SDS011;58572;48.110;19.838;2023-04-25T01:31:20;8.65;;;6.55;;
70920;SDS011;58572;48.110;19.838;2023-04-25T01:33:47;10.82;;;6.13;;
70920;SDS011;58572;48.110;19.838;2023-04-25T01:36:14;8.10;;;6.03;;
70920;SDS011;58572;48.110;19.838;2023-04-25T01:38:43;8.85;;;5.97;;
70920;SDS011;58572;48.110;19.838;2023-04-25T01:41:12;7.82;;;5.85;;
70920;SDS011;58572;48.110;19.838;2023-04-25T01:43:40;8.35;;;6.10;;
70920;SDS011;58572;48.110;19.838;2023-04-25T01:46:07;10.07;;;6.22;;
70920;SDS011;58572;48.110;19.838;2023-04-25T01:48:34;9.13;;;6.05;;
70920;SDS011;58572;48.110;19.838;2023-04-25T01:51:01;7.85;;;6.07;;
70920;SDS011;58572;48.110;19.838;2023-04-25T01:55:58;7.53;;;5.57;;
70920;SDS011;58572;48.110;19.838;2023-04-25T01:58:25;7.13;;;5.60;;
70920;SDS011;58572;48.110;19.838;2023-04-25T02:00:52;7.72;;;6.15;;
70920;SDS011;58572;48.110;19.838;2023-04-25T02:03:19;11.35;;;7.50;;
70920;SDS011;58572;48.110;19.838;2023-04-25T02:05:46;8.40;;;5.88;;
70920;SDS011;58572;48.110;19.838;2023-04-25T02:08:13;8.02;;;5.72;;
70920;SDS011;58572;48.110;19.838;2023-04-25T02:10:41;7.07;;;5.20;;
70920;SDS011;58572;48.110;19.838;2023-04-25T02:13:09;7.30;;;5.55;;
70920;SDS011;58572;48.110;19.838;2023-04-25T02:15:36;6.95;;;5.53;;
70920;SDS011;58572;48.110;19.838;2023-04-25T02:18:03;6.50;;;4.75;;
70920;SDS011;58572;48.110;19.838;2023-04-25T02:20:32;7.15;;;5.45;;
70920;SDS011;58572;48.110;19.838;2023-04-25T02:22:59;6.95;;;5.05;;
70920;SDS011;58572;48.110;19.838;2023-04-25T02:25:26;6.38;;;4.60;;
70920;SDS011;58572;48.110;19.838;2023-04-25T02:27:54;6.38;;;4.45;;
70920;SDS011;58572;48.110;19.838;2023-04-25T02:30:22;6.63;;;5.13;;
70920;SDS011;58572;48.110;19.838;2023-04-25T02:32:49;9.93;;;5.35;;
70920;SDS011;58572;48.110;19.838;2023-04-25T02:35:16;8.57;;;6.15;;
70920;SDS011;58572;48.110;19.838;2023-04-25T02:37:43;7.03;;;4.93;;
70920;SDS011;58572;48.110;19.838;2023-04-25T02:40:11;6.90;;;4.93;;
70920;SDS011;58572;48.110;19.838;2023-04-25T02:42:38;6.35;;;4.90;;
70920;SDS011;58572;48.110;19.838;2023-04-25T02:45:05;7.60;;;5.30;;
70920;SDS011;58572;48.110;19.838;2023-04-25T02:47:35;8.10;;;4.82;;
70920;SDS011;58572;48.110;19.838;2023-04-25T02:50:02;8.57;;;5.00;;
70920;SDS011;58572;48.110;19.838;2023-04-25T02:52:32;7.47;;;4.72;;
70920;SDS011;58572;48.110;19.838;2023-04-25T02:54:59;6.68;;;5.18;;
70920;SDS011;58572;48.110;19.838;2023-04-25T02:57:26;7.15;;;4.88;;
70920;SDS011;58572;48.110;19.838;2023-04-25T02:59:53;6.50;;;4.13;;
70920;SDS011;58572;48.110;19.838;2023-04-25T03:02:20;6.72;;;4.95;;
70920;SDS011;58572;48.110;19.838;2023-04-25T03:04:49;6.32;;;4.63;;
70920;SDS011;58572;48.110;19.838;2023-04-25T03:07:16;6.60;;;4.65;;
70920;SDS011;58572;48.110;19.838;2023-04-25T03:09:44;6.10;;;4.40;;
70920;SDS011;58572;48.110;19.838;2023-04-25T03:12:11;6.43;;;3.67;;
70920;SDS011;58572;48.110;19.838;2023-04-25T03:14:38;5.55;;;3.92;;
70920;SDS011;58572;48.110;19.838;2023-04-25T03:17:05;6.95;;;5.28;;
70920;SDS011;58572;48.110;19.838;2023-04-25T03:19:32;6.07;;;4.65;;
70920;SDS011;58572;48.110;19.838;2023-04-25T03:22:00;5.78;;;4.32;;
70920;SDS011;58572;48.110;19.838;2023-04-25T03:24:28;6.47;;;4.53;;
70920;SDS011;58572;48.110;19.838;2023-04-25T03:26:55;5.20;;;3.60;;
70920;SDS011;58572;48.110;19.838;2023-04-25T03:29:22;6.05;;;3.95;;
70920;SDS011;58572;48.110;19.838;2023-04-25T03:31:51;6.05;;;4.50;;
70920;SDS011;58572;48.110;19.838;2023-04-25T03:34:18;7.45;;;4.68;;
70920;SDS011;58572;48.110;19.838;2023-04-25T03:36:49;6.72;;;4.35;;
70920;SDS011;58572;48.110;19.838;2023-04-25T03:39:17;7.65;;;3.95;;
70920;SDS011;58572;48.110;19.838;2023-04-25T03:41:44;5.47;;;4.03;;
70920;SDS011;58572;48.110;19.838;2023-04-25T03:44:12;5.43;;;4.10;;
70920;SDS011;58572;48.110;19.838;2023-04-25T03:46:39;6.25;;;4.07;;
70920;SDS011;58572;48.110;19.838;2023-04-25T03:49:06;6.25;;;4.88;;
70920;SDS011;58572;48.110;19.838;2023-04-25T03:51:33;7.50;;;3.97;;
70920;SDS011;58572;48.110;19.838;2023-04-25T03:54:01;5.60;;;3.75;;
70920;SDS011;58572;48.110;19.838;2023-04-25T03:56:30;5.90;;;3.97;;
70920;SDS011;58572;48.110;19.838;2023-04-25T03:58:57;5.18;;;3.67;;
70920;SDS011;58572;48.110;19.838;2023-04-25T04:01:24;4.93;;;3.58;;
70920;SDS011;58572;48.110;19.838;2023-04-25T04:03:51;5.82;;;3.80;;
70920;SDS011;58572;48.110;19.838;2023-04-25T04:06:18;5.03;;;3.50;;
70920;SDS011;58572;48.110;19.838;2023-04-25T04:08:46;5.82;;;3.80;;
70920;SDS011;58572;48.110;19.838;2023-04-25T04:11:13;5.85;;;3.50;;
70920;SDS011;58572;48.110;19.838;2023-04-25T04:13:42;7.13;;;3.80;;
70920;SDS011;58572;48.110;19.838;2023-04-25T04:16:09;6.20;;;4.03;;
70920;SDS011;58572;48.110;19.838;2023-04-25T04:18:36;6.13;;;4.13;;
70920;SDS011;58572;48.110;19.838;2023-04-25T04:21:03;5.20;;;3.85;;
70920;SDS011;58572;48.110;19.838;2023-04-25T04:23:31;5.75;;;3.80;;
70920;SDS011;58572;48.110;19.838;2023-04-25T04:25:58;8.02;;;3.40;;
70920;SDS011;58572;48.110;19.838;2023-04-25T04:28:26;6.03;;;2.90;;
70920;SDS011;58572;48.110;19.838;2023-04-25T04:30:55;4.43;;;3.20;;
70920;SDS011;58572;48.110;19.838;2023-04-25T04:33:22;4.85;;;3.20;;
70920;SDS011;58572;48.110;19.838;2023-04-25T04:35:50;5.80;;;3.65;;
70920;SDS011;58572;48.110;19.838;2023-04-25T04:38:18;6.97;;;3.20;;
70920;SDS011;58572;48.110;19.838;2023-04-25T04:40:46;4.50;;;2.90;;
70920;SDS011;58572;48.110;19.838;2023-04-25T04:43:14;4.85;;;3.47;;
70920;SDS011;58572;48.110;19.838;2023-04-25T04:45:42;6.35;;;4.28;;
70920;SDS011;58572;48.110;19.838;2023-04-25T04:48:11;5.20;;;3.70;;
70920;SDS011;58572;48.110;19.838;2023-04-25T04:50:39;5.53;;;3.80;;
70920;SDS011;58572;48.110;19.838;2023-04-25T04:53:06;5.20;;;3.78;;
70920;SDS011;58572;48.110;19.838;2023-04-25T04:55:34;4.88;;;3.25;;
70920;SDS011;58572;48.110;19.838;2023-04-25T04:58:01;4.65;;;3.05;;
70920;SDS011;58572;48.110;19.838;2023-04-25T05:00:28;5.60;;;2.80;;
70920;SDS011;58572;48.110;19.838;2023-04-25T05:02:55;4.78;;;3.53;;
70920;SDS011;58572;48.110;19.838;2023-04-25T05:05:24;4.93;;;4.15;;
70920;SDS011;58572;48.110;19.838;2023-04-25T05:07:51;4.63;;;2.90;;
70920;SDS011;58572;48.110;19.838;2023-04-25T05:10:20;4.65;;;3.22;;
70920;SDS011;58572;48.110;19.838;2023-04-25T05:12:47;3.92;;;3.10;;
70920;SDS011;58572;48.110;19.838;2023-04-25T05:15:14;4.38;;;3.17;;
70920;SDS011;58572;48.110;19.838;2023-04-25T05:17:41;4.10;;;2.75;;
70920;SDS011;58572;48.110;19.838;2023-04-25T05:20:08;3.67;;;2.70;;
70920;SDS011;58572;48.110;19.838;2023-04-25T05:22:38;4.97;;;2.58;;
70920;SDS011;58572;48.110;19.838;2023-04-25T05:25:07;4.20;;;2.53;;
70920;SDS011;58572;48.110;19.838;2023-04-25T05:27:35;4.05;;;2.45;;
70920;SDS011;58572;48.110;19.838;2023-04-25T05:30:02;4.72;;;2.53;;
70920;SDS011;58572;48.110;19.838;2023-04-25T05:32:31;3.65;;;2.75;;
70920;SDS011;58572;48.110;19.838;2023-04-25T05:34:58;3.90;;;2.58;;
70920;SDS011;58572;48.110;19.838;2023-04-25T05:37:26;4.05;;;2.22;;
70920;SDS011;58572;48.110;19.838;2023-04-25T05:39:54;5.13;;;2.45;;
70920;SDS011;58572;48.110;19.838;2023-04-25T05:42:21;4.15;;;2.65;;
70920;SDS011;58572;48.110;19.838;2023-04-25T05:44:49;3.83;;;2.35;;
70920;SDS011;58572;48.110;19.838;2023-04-25T05:47:16;4.75;;;2.53;;
70920;SDS011;58572;48.110;19.838;2023-04-25T05:49:43;4.57;;;2.78;;
70920;SDS011;58572;48.110;19.838;2023-04-25T05:52:10;3.92;;;2.53;;
70920;SDS011;58572;48.110;19.838;2023-04-25T05:54:37;3.90;;;2.33;;
70920;SDS011;58572;48.110;19.838;2023-04-25T05:57:06;3.72;;;2.30;;
70920;SDS011;58572;48.110;19.838;2023-04-25T05:59:33;4.18;;;2.55;;
70920;SDS011;58572;48.110;19.838;2023-04-25T06:02:01;3.03;;;1.77;;
70920;SDS011;58572;48.110;19.838;2023-04-25T06:04:28;4.63;;;2.58;;
70920;SDS011;58572;48.110;19.838;2023-04-25T06:06:55;3.70;;;2.10;;
70920;SDS011;58572;48.110;19.838;2023-04-25T06:09:22;3.50;;;2.25;;
70920;SDS011;58572;48.110;19.838;2023-04-25T06:11:49;3.53;;;2.13;;
70920;SDS011;58572;48.110;19.838;2023-04-25T06:14:18;4.32;;;3.00;;
70920;SDS011;58572;48.110;19.838;2023-04-25T06:16:45;3.40;;;2.20;;
70920;SDS011;58572;48.110;19.838;2023-04-25T06:19:12;2.95;;;2.05;;
70920;SDS011;58572;48.110;19.838;2023-04-25T06:21:39;2.80;;;1.83;;
70920;SDS011;58572;48.110;19.838;2023-04-25T06:24:08;3.03;;;1.85;;
70920;SDS011;58572;48.110;19.838;2023-04-25T06:26:35;6.00;;;2.15;;
70920;SDS011;58572;48.110;19.838;2023-04-25T06:29:02;3.33;;;2.00;;
70920;SDS011;58572;48.110;19.838;2023-04-25T06:31:31;2.72;;;1.73;;
70920;SDS011;58572;48.110;19.838;2023-04-25T06:33:59;2.83;;;1.70;;
70920;SDS011;58572;48.110;19.838;2023-04-25T06:36:26;3.22;;;1.90;;
70920;SDS011;58572;48.110;19.838;2023-04-25T06:38:53;3.30;;;1.92;;
70920;SDS011;58572;48.110;19.838;2023-04-25T06:41:20;2.78;;;1.52;;
70920;SDS011;58572;48.110;19.838;2023-04-25T06:43:48;6.72;;;1.90;;
70920;SDS011;58572;48.110;19.838;2023-04-25T06:46:15;4.10;;;1.70;;
70920;SDS011;58572;48.110;19.838;2023-04-25T06:48:44;5.78;;;1.80;;
70920;SDS011;58572;48.110;19.838;2023-04-25T06:51:11;2.38;;;1.50;;
70920;SDS011;58572;48.110;19.838;2023-04-25T06:53:39;2.70;;;1.55;;
70920;SDS011;58572;48.110;19.838;2023-04-25T06:56:06;5.85;;;1.65;;
70920;SDS011;58572;48.110;19.838;2023-04-25T06:58:33;2.47;;;1.50;;
70920;SDS011;58572;48.110;19.838;2023-04-25T07:01:00;2.38;;;1.55;;
70920;SDS011;58572;48.110;19.838;2023-04-25T07:03:27;3.80;;;1.98;;
70920;SDS011;58572;48.110;19.838;2023-04-25T07:05:56;2.55;;;1.25;;
70920;SDS011;58572;48.110;19.838;2023-04-25T07:08:24;2.47;;;1.30;;
70920;SDS011;58572;48.110;19.838;2023-04-25T07:10:51;3.70;;;1.40;;
70920;SDS011;58572;48.110;19.838;2023-04-25T07:13:18;2.33;;;1.25;;
70920;SDS011;58572;48.110;19.838;2023-04-25T07:15:45;2.50;;;1.42;;
70920;SDS011;58572;48.110;19.838;2023-04-25T07:18:13;3.35;;;1.40;;
70920;SDS011;58572;48.110;19.838;2023-04-25T07:20:41;2.97;;;1.17;;
70920;SDS011;58572;48.110;19.838;2023-04-25T07:23:09;2.25;;;1.30;;
70920;SDS011;58572;48.110;19.838;2023-04-25T07:25:36;2.72;;;1.50;;
70920;SDS011;58572;48.110;19.838;2023-04-25T07:28:04;4.07;;;1.13;;
70920;SDS011;58572;48.110;19.838;2023-04-25T07:30:31;2.75;;;1.70;;
70920;SDS011;58572;48.110;19.838;2023-04-25T07:32:59;2.25;;;1.00;;
70920;SDS011;58572;48.110;19.838;2023-04-25T07:35:27;2.53;;;1.13;;
70920;SDS011;58572;48.110;19.838;2023-04-25T07:37:54;1.88;;;1.13;;
70920;SDS011;58572;48.110;19.838;2023-04-25T07:40:22;1.90;;;1.10;;
70920;SDS011;58572;48.110;19.838;2023-04-25T07:42:49;2.00;;;1.20;;
70920;SDS011;58572;48.110;19.838;2023-04-25T07:45:17;2.05;;;1.10;;
70920;SDS011;58572;48.110;19.838;2023-04-25T07:47:44;1.77;;;1.00;;
70920;SDS011;58572;48.110;19.838;2023-04-25T07:50:11;2.53;;;1.13;;
70920;SDS011;58572;48.110;19.838;2023-04-25T07:52:38;1.88;;;1.10;;
70920;SDS011;58572;48.110;19.838;2023-04-25T07:55:05;2.05;;;1.10;;
70920;SDS011;58572;48.110;19.838;2023-04-25T07:57:34;2.05;;;1.10;;
70920;SDS011;58572;48.110;19.838;2023-04-25T08:00:03;1.80;;;0.90;;
70920;SDS011;58572;48.110;19.838;2023-04-25T08:02:34;1.60;;;0.90;;
70920;SDS011;58572;48.110;19.838;2023-04-25T08:05:01;4.32;;;0.80;;
70920;SDS011;58572;48.110;19.838;2023-04-25T08:07:28;2.55;;;1.00;;
70920;SDS011;58572;48.110;19.838;2023-04-25T08:09:56;2.90;;;1.13;;
70920;SDS011;58572;48.110;19.838;2023-04-25T08:12:23;2.67;;;1.30;;
70920;SDS011;58572;48.110;19.838;2023-04-25T08:14:53;1.88;;;1.15;;
70920;SDS011;58572;48.110;19.838;2023-04-25T08:17:20;2.78;;;1.27;;
70920;SDS011;58572;48.110;19.838;2023-04-25T08:19:47;2.40;;;1.50;;
70920;SDS011;58572;48.110;19.838;2023-04-25T08:22:15;3.38;;;1.23;;
70920;SDS011;58572;48.110;19.838;2023-04-25T08:24:42;3.50;;;1.60;;
70920;SDS011;58572;48.110;19.838;2023-04-25T08:27:10;3.05;;;1.15;;
70920;SDS011;58572;48.110;19.838;2023-04-25T08:29:37;1.88;;;1.20;;
70920;SDS011;58572;48.110;19.838;2023-04-25T08:32:06;2.45;;;1.20;;
70920;SDS011;58572;48.110;19.838;2023-04-25T08:34:33;2.08;;;1.08;;
70920;SDS011;58572;48.110;19.838;2023-04-25T08:37:02;3.17;;;1.10;;
70920;SDS011;58572;48.110;19.838;2023-04-25T08:39:29;2.00;;;1.15;;
70920;SDS011;58572;48.110;19.838;2023-04-25T08:41:56;3.72;;;1.42;;
70920;SDS011;58572;48.110;19.838;2023-04-25T08:44:23;1.98;;;0.90;;
70920;SDS011;58572;48.110;19.838;2023-04-25T08:46:51;2.05;;;1.30;;
70920;SDS011;58572;48.110;19.838;2023-04-25T08:49:21;2.15;;;1.05;;
70920;SDS011;58572;48.110;19.838;2023-04-25T08:51:48;1.98;;;0.93;;
70920;SDS011;58572;48.110;19.838;2023-04-25T08:54:17;2.38;;;1.40;;
70920;SDS011;58572;48.110;19.838;2023-04-25T08:56:51;4.22;;;1.02;;
70920;SDS011;58572;48.110;19.838;2023-04-25T08:59:18;2.00;;;1.00;;
70920;SDS011;58572;48.110;19.838;2023-04-25T09:01:47;2.25;;;1.05;;
70920;SDS011;58572;48.110;19.838;2023-04-25T09:04:16;1.92;;;1.00;;
70920;SDS011;58572;48.110;19.838;2023-04-25T09:06:48;4.45;;;0.85;;
70920;SDS011;58572;48.110;19.838;2023-04-25T09:09:15;1.52;;;0.80;;
70920;SDS011;58572;48.110;19.838;2023-04-25T09:11:43;2.13;;;0.80;;
70920;SDS011;58572;48.110;19.838;2023-04-25T09:14:10;1.50;;;0.82;;
70920;SDS011;58572;48.110;19.838;2023-04-25T09:16:57;1.10;;;0.80;;
70920;SDS011;58572;48.110;19.838;2023-04-25T09:19:26;2.08;;;0.68;;
70920;SDS011;58572;48.110;19.838;2023-04-25T09:21:56;2.45;;;0.90;;
70920;SDS011;58572;48.110;19.838;2023-04-25T09:24:30;1.20;;;0.73;;
70920;SDS011;58572;48.110;19.838;2023-04-25T09:26:58;1.63;;;0.77;;
70920;SDS011;58572;48.110;19.838;2023-04-25T09:34:40;1.80;;;0.75;;
70920;SDS011;58572;48.110;19.838;2023-04-25T09:37:10;1.02;;;0.80;;
70920;SDS011;58572;48.110;19.838;2023-04-25T09:39:38;1.33;;;0.60;;
70920;SDS011;58572;48.110;19.838;2023-04-25T09:44:34;1.70;;;0.80;;
70920;SDS011;58572;48.110;19.838;2023-04-25T09:47:02;2.53;;;0.80;;
70920;SDS011;58572;48.110;19.838;2023-04-25T09:49:29;1.20;;;0.60;;
70920;SDS011;58572;48.110;19.838;2023-04-25T09:51:56;1.30;;;0.70;;
70920;SDS011;58572;48.110;19.838;2023-04-25T09:54:26;1.45;;;1.10;;
70920;SDS011;58572;48.110;19.838;2023-04-25T09:56:53;1.48;;;0.80;;
70920;SDS011;58572;48.110;19.838;2023-04-25T09:59:20;2.13;;;0.70;;
70920;SDS011;58572;48.110;19.838;2023-04-25T10:01:50;1.23;;;0.70;;
70920;SDS011;58572;48.110;19.838;2023-04-25T10:04:24;1.45;;;0.73;;
70920;SDS011;58572;48.110;19.838;2023-04-25T10:06:54;2.40;;;0.80;;
70920;SDS011;58572;48.110;19.838;2023-04-25T10:09:24;1.60;;;0.82;;
70920;SDS011;58572;48.110;19.838;2023-04-25T10:11:57;1.92;;;0.90;;
70920;SDS011;58572;48.110;19.838;2023-04-25T10:14:25;2.00;;;1.00;;
70920;SDS011;58572;48.110;19.838;2023-04-25T10:16:53;1.42;;;0.80;;
70920;SDS011;58572;48.110;19.838;2023-04-25T10:19:22;1.60;;;0.70;;
70920;SDS011;58572;48.110;19.838;2023-04-25T10:21:51;2.95;;;1.13;;
70920;SDS011;58572;48.110;19.838;2023-04-25T10:24:20;1.83;;;0.90;;
70920;SDS011;58572;48.110;19.838;2023-04-25T10:26:50;1.02;;;0.60;;
70920;SDS011;58572;48.110;19.838;2023-04-25T10:29:21;1.70;;;0.65;;
70920;SDS011;58572;48.110;19.838;2023-04-25T10:31:49;1.90;;;0.80;;
70920;SDS011;58572;48.110;19.838;2023-04-25T10:34:16;1.77;;;0.80;;
70920;SDS011;58572;48.110;19.838;2023-04-25T10:36:48;1.85;;;0.90;;
70920;SDS011;58572;48.110;19.838;2023-04-25T10:39:21;1.40;;;0.75;;
70920;SDS011;58572;48.110;19.838;2023-04-25T10:41:55;1.95;;;0.80;;
70920;SDS011;58572;48.110;19.838;2023-04-25T10:44:26;2.33;;;0.60;;
70920;SDS011;58572;48.110;19.838;2023-04-25T10:46:54;1.83;;;0.70;;
70920;SDS011;58572;48.110;19.838;2023-04-25T10:49:29;0.77;;;0.45;;
70920;SDS011;58572;48.110;19.838;2023-04-25T10:52:13;1.55;;;1.08;;
70920;SDS011;58572;48.110;19.838;2023-04-25T10:57:30;1.80;;;0.93;;
70920;SDS011;58572;48.110;19.838;2023-04-25T11:00:10;2.40;;;0.65;;
70920;SDS011;58572;48.110;19.838;2023-04-25T11:02:46;1.38;;;0.90;;
70920;SDS011;58572;48.110;19.838;2023-04-25T11:05:22;1.92;;;0.90;;
70920;SDS011;58572;48.110;19.838;2023-04-25T11:07:56;1.50;;;0.82;;
70920;SDS011;58572;48.110;19.838;2023-04-25T11:10:25;1.15;;;0.90;;
70920;SDS011;58572;48.110;19.838;2023-04-25T11:12:58;1.95;;;0.80;;
70920;SDS011;58572;48.110;19.838;2023-04-25T11:15:31;1.30;;;0.70;;
70920;SDS011;58572;48.110;19.838;2023-04-25T11:17:58;3.15;;;1.13;;
70920;SDS011;58572;48.110;19.838;2023-04-25T11:20:25;1.73;;;0.93;;
70920;SDS011;58572;48.110;19.838;2023-04-25T11:22:53;1.85;;;1.00;;
70920;SDS011;58572;48.110;19.838;2023-04-25T11:25:24;2.00;;;0.80;;
70920;SDS011;58572;48.110;19.838;2023-04-25T11:27:52;1.80;;;0.80;;
70920;SDS011;58572;48.110;19.838;2023-04-25T11:30:23;3.08;;;0.90;;
70920;SDS011;58572;48.110;19.838;2023-04-25T11:32:51;2.00;;;0.88;;
70920;SDS011;58572;48.110;19.838;2023-04-25T11:35:18;1.35;;;0.75;;
70920;SDS011;58572;48.110;19.838;2023-04-25T11:37:48;2.35;;;0.70;;
70920;SDS011;58572;48.110;19.838;2023-04-25T11:40:15;1.48;;;0.90;;
70920;SDS011;58572;48.110;19.838;2023-04-25T11:42:43;1.88;;;1.02;;
70920;SDS011;58572;48.110;19.838;2023-04-25T11:45:12;2.65;;;1.10;;
70920;SDS011;58572;48.110;19.838;2023-04-25T11:47:42;2.83;;;1.15;;
70920;SDS011;58572;48.110;19.838;2023-04-25T11:50:09;2.25;;;1.02;;
70920;SDS011;58572;48.110;19.838;2023-04-25T11:52:40;2.17;;;1.15;;
70920;SDS011;58572;48.110;19.838;2023-04-25T11:55:08;2.13;;;1.23;;
70920;SDS011;58572;48.110;19.838;2023-04-25T11:57:39;2.85;;;1.38;;
70920;SDS011;58572;48.110;19.838;2023-04-25T12:00:09;2.45;;;0.95;;
70920;SDS011;58572;48.110;19.838;2023-04-25T12:02:40;1.90;;;0.90;;
70920;SDS011;58572;48.110;19.838;2023-04-25T12:05:09;1.75;;;0.90;;
70920;SDS011;58572;48.110;19.838;2023-04-25T12:07:37;1.65;;;0.98;;
70920;SDS011;58572;48.110;19.838;2023-04-25T12:10:04;2.97;;;1.25;;
70920;SDS011;58572;48.110;19.838;2023-04-25T12:12:33;1.35;;;0.75;;
70920;SDS011;58572;48.110;19.838;2023-04-25T12:15:10;1.27;;;0.68;;
70920;SDS011;58572;48.110;19.838;2023-04-25T12:17:42;1.20;;;0.60;;
70920;SDS011;58572;48.110;19.838;2023-04-25T12:20:12;1.70;;;0.93;;
70920;SDS011;58572;48.110;19.838;2023-04-25T12:22:41;1.23;;;0.73;;
70920;SDS011;58572;48.110;19.838;2023-04-25T12:25:11;1.15;;;0.80;;
70920;SDS011;58572;48.110;19.838;2023-04-25T12:27:39;2.60;;;0.90;;
70920;SDS011;58572;48.110;19.838;2023-04-25T12:30:07;1.27;;;0.60;;
70920;SDS011;58572;48.110;19.838;2023-04-25T12:32:36;2.30;;;0.70;;
70920;SDS011;58572;48.110;19.838;2023-04-25T12:35:05;2.35;;;0.77;;
70920;SDS011;58572;48.110;19.838;2023-04-25T12:37:32;1.48;;;0.55;;
70920;SDS011;58572;48.110;19.838;2023-04-25T12:40:00;2.58;;;0.70;;
70920;SDS011;58572;48.110;19.838;2023-04-25T12:42:28;0.93;;;0.63;;
70920;SDS011;58572;48.110;19.838;2023-04-25T12:47:23;1.63;;;0.73;;
70920;SDS011;58572;48.110;19.838;2023-04-25T12:49:50;1.63;;;0.85;;
70920;SDS011;58572;48.110;19.838;2023-04-25T12:52:19;1.98;;;0.80;;
70920;SDS011;58572;48.110;19.838;2023-04-25T12:54:46;1.70;;;0.82;;
70920;SDS011;58572;48.110;19.838;2023-04-25T12:57:13;1.42;;;0.80;;
70920;SDS011;58572;48.110;19.838;2023-04-25T12:59:40;2.22;;;1.13;;
70920;SDS011;58572;48.110;19.838;2023-04-25T13:02:07;2.03;;;1.08;;
70920;SDS011;58572;48.110;19.838;2023-04-25T13:04:35;1.95;;;1.02;;
70920;SDS011;58572;48.110;19.838;2023-04-25T13:07:02;2.08;;;1.35;;
70920;SDS011;58572;48.110;19.838;2023-04-25T13:09:31;3.00;;;1.13;;
70920;SDS011;58572;48.110;19.838;2023-04-25T13:11:59;3.95;;;1.20;;
70920;SDS011;58572;48.110;19.838;2023-04-25T13:14:27;2.42;;;1.20;;
70920;SDS011;58572;48.110;19.838;2023-04-25T13:17:00;2.20;;;1.25;;
70920;SDS011;58572;48.110;19.838;2023-04-25T13:19:27;3.55;;;1.50;;
70920;SDS011;58572;48.110;19.838;2023-04-25T13:21:54;4.32;;;1.63;;
70920;SDS011;58572;48.110;19.838;2023-04-25T13:24:21;2.83;;;1.15;;
70920;SDS011;58572;48.110;19.838;2023-04-25T13:26:50;2.38;;;1.33;;
70920;SDS011;58572;48.110;19.838;2023-04-25T13:29:17;2.60;;;1.20;;
70920;SDS011;58572;48.110;19.838;2023-04-25T13:31:44;4.07;;;1.70;;
70920;SDS011;58572;48.110;19.838;2023-04-25T13:34:11;3.80;;;1.42;;
70920;SDS011;58572;48.110;19.838;2023-04-25T13:36:38;2.75;;;1.38;;
70920;SDS011;58572;48.110;19.838;2023-04-25T13:39:05;6.47;;;1.50;;
70920;SDS011;58572;48.110;19.838;2023-04-25T13:41:32;2.72;;;1.45;;
70920;SDS011;58572;48.110;19.838;2023-04-25T13:44:01;3.60;;;2.05;;
70920;SDS011;58572;48.110;19.838;2023-04-25T13:46:30;2.88;;;1.98;;
70920;SDS011;58572;48.110;19.838;2023-04-25T13:48:57;3.40;;;1.60;;
70920;SDS011;58572;48.110;19.838;2023-04-25T13:51:24;2.97;;;1.70;;
70920;SDS011;58572;48.110;19.838;2023-04-25T13:53:51;3.63;;;1.65;;
70920;SDS011;58572;48.110;19.838;2023-04-25T13:56:18;8.20;;;1.45;;
70920;SDS011;58572;48.110;19.838;2023-04-25T13:58:47;1.98;;;1.20;;
70920;SDS011;58572;48.110;19.838;2023-04-25T14:01:16;1.65;;;1.00;;
70920;SDS011;58572;48.110;19.838;2023-04-25T14:03:43;3.78;;;1.20;;
70920;SDS011;58572;48.110;19.838;2023-04-25T14:06:10;1.65;;;1.05;;
70920;SDS011;58572;48.110;19.838;2023-04-25T14:08:37;1.67;;;1.15;;
70920;SDS011;58572;48.110;19.838;2023-04-25T14:11:05;2.38;;;1.17;;
70920;SDS011;58572;48.110;19.838;2023-04-25T14:13:32;2.20;;;1.02;;
70920;SDS011;58572;48.110;19.838;2023-04-25T14:15:59;1.73;;;0.95;;
70920;SDS011;58572;48.110;19.838;2023-04-25T14:18:28;2.10;;;0.93;;
70920;SDS011;58572;48.110;19.838;2023-04-25T14:20:55;2.47;;;1.15;;
70920;SDS011;58572;48.110;19.838;2023-04-25T14:23:22;2.05;;;0.70;;
70920;SDS011;58572;48.110;19.838;2023-04-25T14:25:50;2.13;;;1.13;;
70920;SDS011;58572;48.110;19.838;2023-04-25T14:28:17;1.80;;;1.00;;
70920;SDS011;58572;48.110;19.838;2023-04-25T14:30:44;1.60;;;1.00;;
70920;SDS011;58572;48.110;19.838;2023-04-25T14:33:11;2.05;;;1.02;;
70920;SDS011;58572;48.110;19.838;2023-04-25T14:35:41;2.00;;;1.05;;
70920;SDS011;58572;48.110;19.838;2023-04-25T14:38:08;2.08;;;0.90;;
70920;SDS011;58572;48.110;19.838;2023-04-25T14:40:35;1.52;;;0.95;;
70920;SDS011;58572;48.110;19.838;2023-04-25T14:43:03;2.47;;;1.52;;
70920;SDS011;58572;48.110;19.838;2023-04-25T14:45:30;1.52;;;1.00;;
70920;SDS011;58572;48.110;19.838;2023-04-25T14:47:57;2.22;;;1.20;;
70920;SDS011;58572;48.110;19.838;2023-04-25T14:50:26;3.33;;;1.00;;
70920;SDS011;58572;48.110;19.838;2023-04-25T14:52:55;3.60;;;1.20;;